Time;durP1;ratioP1;P1;durP2;ratioP2;P2;SDS_P1;SDS_P2;PMS_P1;PMS_P2;Temp;Humidity;BMP_temperature;BMP_pressure;BME280_temperature;BME280_humidity;BME280_pressure;Samples;Min_cycle;Max_cycle;Signal;HPM_P1;HPM_P2
2022/11/19 00:01:03;;;;;;;75.72;34.67;;;;;;;8.11;100.00;100696.44;5204063;28;20025;-75
2022/11/19 00:03:35;;;;;;;84.18;33.95;;;;;;;8.10;100.00;100696.63;5205043;28;20296;-75
2022/11/19 00:06:08;;;;;;;83.75;34.58;;;;;;;8.11;100.00;100706.31;5205310;28;20071;-76
2022/11/19 00:08:39;;;;;;;70.70;33.97;;;;;;;8.10;100.00;100700.13;5204532;28;20025;-76
2022/11/19 00:11:15;;;;;;;68.13;32.80;;;;;;;8.11;100.00;100699.13;5205246;28;20047;-75
2022/11/19 00:13:48;;;;;;;73.53;32.03;;;;;;;8.12;100.00;100698.13;5204893;28;20041;-75
2022/11/19 00:16:19;;;;;;;78.55;33.47;;;;;;;8.13;100.00;100699.78;5205191;28;20503;-76
2022/11/19 00:18:49;;;;;;;76.25;34.67;;;;;;;8.14;100.00;100701.50;5204579;28;20034;-75
2022/11/19 00:21:20;;;;;;;88.65;35.70;;;;;;;8.16;100.00;100704.00;5205540;28;20076;-76
2022/11/19 00:23:54;;;;;;;83.43;34.55;;;;;;;8.16;100.00;100706.69;5204944;28;20384;-75
2022/11/19 00:26:25;;;;;;;74.27;34.30;;;;;;;8.12;100.00;100702.63;5202160;28;20116;-75
2022/11/19 00:28:55;;;;;;;70.00;34.15;;;;;;;8.12;100.00;100691.94;5204234;28;20029;-76
2022/11/19 00:31:26;;;;;;;85.28;35.25;;;;;;;8.11;100.00;100700.97;5201329;28;20112;-75
2022/11/19 00:33:56;;;;;;;82.03;35.42;;;;;;;8.08;100.00;100695.91;5204851;28;20029;-77
2022/11/19 00:36:27;;;;;;;84.32;34.35;;;;;;;8.07;100.00;100710.28;5204769;28;20029;-76
2022/11/19 00:38:57;;;;;;;81.82;36.00;;;;;;;8.02;100.00;100698.22;5203901;28;20117;-76
2022/11/19 00:41:28;;;;;;;75.10;34.97;;;;;;;8.00;100.00;100700.19;5204260;28;20057;-75
2022/11/19 00:43:58;;;;;;;75.68;32.85;;;;;;;7.98;100.00;100698.66;5204688;28;20075;-75
2022/11/19 00:46:30;;;;;;;80.63;35.33;;;;;;;7.96;100.00;100695.31;5204289;28;20029;-77
2022/11/19 00:49:00;;;;;;;86.32;36.17;;;;;;;7.94;100.00;100697.31;5204657;28;20029;-75
2022/11/19 00:51:31;;;;;;;73.18;34.50;;;;;;;7.91;100.00;100701.13;5204147;28;20034;-75
2022/11/19 00:54:01;;;;;;;71.82;34.05;;;;;;;7.89;100.00;100695.09;5204642;28;20526;-75
2022/11/19 00:56:31;;;;;;;87.50;36.25;;;;;;;7.86;100.00;100697.22;5204153;28;20029;-75
2022/11/19 00:59:03;;;;;;;84.50;35.45;;;;;;;7.84;100.00;100697.38;5203987;28;20017;-75
2022/11/19 01:01:33;;;;;;;84.55;34.25;;;;;;;7.81;100.00;100704.84;5204610;28;20104;-76
2022/11/19 01:04:05;;;;;;;78.72;33.35;;;;;;;7.77;100.00;100701.63;5203876;28;20036;-76
2022/11/19 01:06:35;;;;;;;80.20;33.47;;;;;;;7.77;100.00;100709.66;5203960;28;20036;-76
2022/11/19 01:09:06;;;;;;;68.40;32.28;;;;;;;7.78;100.00;100712.19;5203502;28;20483;-74
2022/11/19 01:11:37;;;;;;;81.20;34.00;;;;;;;7.79;100.00;100715.69;5204054;28;20122;-76
2022/11/19 01:14:08;;;;;;;77.95;34.17;;;;;;;7.81;100.00;100716.38;5203452;28;20029;-77
2022/11/19 01:16:40;;;;;;;74.45;33.45;;;;;;;7.83;100.00;100722.41;5203523;28;20083;-74
2022/11/19 01:19:11;;;;;;;72.05;32.25;;;;;;;7.87;100.00;100728.28;5197770;28;20495;-75
2022/11/19 01:21:41;;;;;;;88.65;33.97;;;;;;;7.89;100.00;100729.81;5196147;28;20100;-75
2022/11/19 01:24:11;;;;;;;90.28;34.88;;;;;;;7.90;100.00;100736.00;5203429;28;20028;-75
2022/11/19 01:26:42;;;;;;;79.28;34.53;;;;;;;7.91;100.00;100730.50;5200807;28;20040;-75
2022/11/19 01:29:12;;;;;;;87.63;35.38;;;;;;;7.90;100.00;100736.84;5192300;28;20025;-75
2022/11/19 01:31:43;;;;;;;78.45;35.13;;;;;;;7.92;100.00;100742.84;5203165;28;20021;-75
2022/11/19 01:34:13;;;;;;;76.07;33.13;;;;;;;7.92;100.00;100742.03;5203630;28;20028;-75
2022/11/19 01:36:44;;;;;;;72.75;32.10;;;;;;;7.92;100.00;100750.88;5203172;28;20022;-74
2022/11/19 01:39:14;;;;;;;74.70;33.22;;;;;;;8.04;100.00;100740.81;5202605;28;20451;-75
2022/11/19 01:41:45;;;;;;;81.65;33.92;;;;;;;8.05;100.00;100738.00;5203269;28;20072;-74
2022/11/19 01:44:52;;;;;;;66.43;32.45;;;;;;;8.07;100.00;100742.34;5203640;28;20387;-75
2022/11/19 01:47:22;;;;;;;84.75;34.85;;;;;;;8.05;100.00;100743.34;5202535;28;20033;-75
2022/11/19 01:49:53;;;;;;;76.88;33.08;;;;;;;8.05;100.00;100740.66;5202673;28;20055;-75
2022/11/19 01:52:24;;;;;;;78.57;33.00;;;;;;;8.04;100.00;100741.66;5202787;28;20070;-75
2022/11/19 01:54:54;;;;;;;77.63;33.83;;;;;;;8.02;100.00;100746.28;5203071;28;20032;-75
2022/11/19 01:57:25;;;;;;;79.07;33.65;;;;;;;8.01;100.00;100752.63;5202833;28;20033;-75
2022/11/19 01:59:55;;;;;;;73.97;31.65;;;;;;;7.99;100.00;100746.63;5203042;28;20125;-75
2022/11/19 02:02:26;;;;;;;79.07;32.70;;;;;;;8.00;100.00;100748.28;5203072;28;20033;-75
2022/11/19 02:04:57;;;;;;;75.30;32.67;;;;;;;7.99;100.00;100751.97;5203356;28;20495;-75
2022/11/19 02:07:32;;;;;;;86.72;33.35;;;;;;;8.01;100.00;100749.13;5202481;28;20022;-75
2022/11/19 02:10:11;;;;;;;68.45;31.85;;;;;;;7.99;100.00;100754.63;5203282;28;20040;-75
2022/11/19 02:13:37;;;;;;;75.65;32.20;;;;;;;8.01;100.00;100754.47;5203267;28;20036;-75
2022/11/19 02:16:23;;;;;;;71.70;31.25;;;;;;;8.01;100.00;100757.97;5203481;28;20049;-76
2022/11/19 02:19:30;;;;;;;83.65;32.53;;;;;;;7.98;100.00;100752.09;5202958;28;20091;-76
2022/11/19 02:22:17;;;;;;;74.93;31.60;;;;;;;7.94;100.00;100748.06;5204361;28;20035;-76
2022/11/19 02:24:52;;;;;;;73.60;32.35;;;;;;;7.93;100.00;100751.69;5200145;28;20068;-76
2022/11/19 02:27:40;;;;;;;71.07;30.20;;;;;;;7.89;100.00;100751.19;5194191;28;20053;-75
2022/11/19 02:30:18;;;;;;;76.75;32.47;;;;;;;7.90;100.00;100752.03;5199640;28;20108;-76
2022/11/19 02:32:54;;;;;;;73.95;31.55;;;;;;;7.89;100.00;100753.03;5199350;28;20482;-75
2022/11/19 02:35:43;;;;;;;65.82;31.15;;;;;;;7.86;100.00;100756.81;5202359;28;20033;-75
2022/11/19 02:38:13;;;;;;;72.60;30.80;;;;;;;7.85;100.00;100749.81;5202016;28;20022;-75
2022/11/19 02:41:35;;;;;;;72.30;32.47;;;;;;;7.85;100.00;100746.28;5202648;28;20033;-74
2022/11/19 02:47:06;;;;;;;73.20;30.90;;;;;;;7.81;100.00;100742.25;5202163;28;20517;-75
2022/11/19 02:49:41;;;;;;;73.30;31.08;;;;;;;7.78;100.00;100746.03;5202944;28;20496;-75
2022/11/19 02:52:15;;;;;;;;;;;;;;;7.79;100.00;100748.59;5202662;28;20556;-75
2022/11/19 02:54:46;;;;;;;75.40;31.13;;;;;;;7.78;100.00;100744.25;5202783;28;19908;-75
2022/11/19 02:57:16;;;;;;;74.47;31.17;;;;;;;7.76;100.00;100742.69;5202051;28;20482;-75
2022/11/19 03:05:53;;;;;;;69.75;31.35;;;;;;;7.76;100.00;100758.72;5206540;28;20537;-75
2022/11/19 03:08:24;;;;;;;85.47;32.42;;;;;;;7.74;100.00;100756.19;5205725;28;20387;-75
2022/11/19 03:11:18;;;;;;;78.85;31.80;;;;;;;7.74;100.00;100758.88;5205764;28;20042;-74
2022/11/19 03:17:03;;;;;;;74.68;30.13;;;;;;;7.73;100.00;100759.00;5205765;28;20029;-74
2022/11/19 03:20:00;;;;;;;76.97;30.20;;;;;;;7.71;100.00;100764.50;5206601;28;20490;-74
2022/11/19 03:23:19;;;;;;;71.63;30.77;;;;;;;7.71;100.00;100763.66;5205930;28;20026;-75
2022/11/19 03:25:57;;;;;;;70.63;29.50;;;;;;;7.76;100.00;100759.56;5202056;28;20429;-75
2022/11/19 03:28:33;;;;;;;74.97;29.58;;;;;;;7.69;100.00;100761.16;5192030;28;20386;-75
2022/11/19 03:31:05;;;;;;;66.47;28.80;;;;;;;7.69;100.00;100765.66;5202749;28;20025;-75
2022/11/19 03:33:41;;;;;;;71.68;30.08;;;;;;;7.70;100.00;100773.50;5205803;28;20032;-75
2022/11/19 03:36:17;;;;;;;;;;;;;;;7.71;100.00;100780.53;5206084;28;20032;-74
2022/11/19 03:38:57;;;;;;;74.95;29.17;;;;;;;7.71;100.00;100772.50;5205195;28;19915;-75
2022/11/19 03:41:29;;;;;;;69.75;30.38;;;;;;;7.73;100.00;100772.34;5205749;28;20383;-74
2022/11/19 03:44:05;;;;;;;66.15;29.48;;;;;;;7.73;100.00;100772.34;5200582;28;20021;-75
2022/11/19 03:46:39;;;;;;;76.15;30.20;;;;;;;7.72;100.00;100766.19;5202204;28;20436;-75
2022/11/19 03:49:12;;;;;;;69.40;30.10;;;;;;;7.69;100.00;100769.16;5205184;28;20049;-74
2022/11/19 03:51:51;;;;;;;70.90;30.85;;;;;;;7.70;100.00;100767.34;5205525;28;20029;-75
2022/11/19 03:54:21;;;;;;;78.53;30.95;;;;;;;7.71;100.00;100769.84;5192263;28;20074;-75
2022/11/19 03:56:53;;;;;;;78.18;32.15;;;;;;;7.71;100.00;100777.03;5204740;28;20034;-75
2022/11/19 03:59:25;;;;;;;72.75;30.77;;;;;;;7.70;100.00;100783.34;5205433;28;20458;-75
2022/11/19 04:02:00;;;;;;;78.68;33.70;;;;;;;7.68;100.00;100782.66;5205304;28;20056;-75
2022/11/19 04:04:36;;;;;;;87.70;33.22;;;;;;;7.66;100.00;100773.94;5191899;28;20053;-75
2022/11/19 04:07:17;;;;;;;73.35;32.38;;;;;;;7.65;100.00;100785.63;5202822;28;20483;-75
2022/11/19 04:09:48;;;;;;;94.53;36.10;;;;;;;7.62;100.00;100770.72;5194624;28;20036;-74
2022/11/19 04:12:21;;;;;;;72.88;31.73;;;;;;;7.63;100.00;100782.25;5205292;28;20029;-75
2022/11/19 04:14:52;;;;;;;84.53;34.20;;;;;;;7.61;100.00;100785.06;5204341;28;20017;-75
2022/11/19 04:17:22;;;;;;;80.97;31.75;;;;;;;7.62;100.00;100785.91;5203532;28;20533;-75
2022/11/19 04:19:52;;;;;;;83.95;33.85;;;;;;;7.62;100.00;100785.91;5204748;28;20056;-75
2022/11/19 04:22:23;;;;;;;78.22;34.15;;;;;;;7.62;100.00;100794.75;5205105;28;20032;-74
2022/11/19 04:24:53;;;;;;;81.45;34.60;;;;;;;7.64;100.00;100794.63;5204585;28;20065;-74
2022/11/19 04:27:24;;;;;;;91.65;36.13;;;;;;;7.64;100.00;100805.31;5204043;28;20022;-75
2022/11/19 04:29:54;;;;;;;77.32;33.50;;;;;;;7.66;100.00;100803.31;5204775;28;20025;-75
2022/11/19 04:32:25;;;;;;;71.82;33.55;;;;;;;7.68;100.00;100804.00;5201412;28;20104;-75
2022/11/19 04:34:55;;;;;;;81.00;33.63;;;;;;;7.68;100.00;100812.00;5204591;28;20025;-75
2022/11/19 04:37:26;;;;;;;89.65;35.33;;;;;;;7.71;100.00;100817.91;5204491;28;20643;-75
2022/11/19 04:39:56;;;;;;;81.60;34.28;;;;;;;7.74;100.00;100814.13;5204352;28;20559;-75
2022/11/19 04:42:26;;;;;;;91.47;33.22;;;;;;;7.70;100.00;100812.72;5204187;28;20029;-76
2022/11/19 04:44:57;;;;;;;84.03;29.90;;;;;;;7.57;100.00;100821.06;5204359;28;20115;-75
2022/11/19 04:47:28;;;;;;;69.07;26.60;;;;;;;7.43;100.00;100824.22;5203989;28;20029;-76
2022/11/19 04:49:58;;;;;;;72.10;26.77;;;;;;;7.38;100.00;100827.34;5204606;28;20026;-75
2022/11/19 04:52:30;;;;;;;66.32;23.70;;;;;;;7.28;100.00;100826.53;5204770;28;20124;-76
2022/11/19 04:55:01;;;;;;;58.97;23.58;;;;;;;7.05;100.00;100828.69;5203880;28;20036;-76
2022/11/19 04:57:31;;;;;;;59.75;22.85;;;;;;;6.85;100.00;100833.22;5203556;28;20025;-75
2022/11/19 05:00:03;;;;;;;57.60;22.77;;;;;;;6.71;100.00;100833.66;5204571;28;20021;-75
2022/11/19 05:02:33;;;;;;;62.42;23.50;;;;;;;6.59;100.00;100824.13;5204012;28;20092;-75
2022/11/19 05:05:04;;;;;;;64.05;23.10;;;;;;;6.48;100.00;100825.97;5204454;28;20021;-75
2022/11/19 05:07:34;;;;;;;61.58;23.75;;;;;;;6.37;100.00;100825.22;5203160;28;20037;-75
2022/11/19 05:10:06;;;;;;;56.83;23.48;;;;;;;6.32;100.00;100830.97;5204128;28;20022;-75
2022/11/19 05:12:36;;;;;;;62.03;22.38;;;;;;;6.27;100.00;100835.88;5203646;28;20029;-75
2022/11/19 05:15:07;;;;;;;50.72;20.55;;;;;;;6.18;100.00;100831.41;5203688;28;20078;-76
2022/11/19 05:17:38;;;;;;;48.92;19.15;;;;;;;6.05;100.00;100836.13;5203526;28;20057;-76
2022/11/19 05:20:08;;;;;;;45.22;18.60;;;;;;;5.95;100.00;100841.44;5203264;28;20060;-76
2022/11/19 05:22:39;;;;;;;44.88;19.00;;;;;;;5.88;100.00;100837.63;5203785;28;20030;-74
2022/11/19 05:25:09;;;;;;;42.65;17.95;;;;;;;5.82;100.00;100846.97;5201648;28;20100;-74
2022/11/19 05:27:40;;;;;;;40.60;17.95;;;;;;;5.68;100.00;100842.88;5202688;28;20025;-74
2022/11/19 05:30:11;;;;;;;43.60;17.20;;;;;;;5.66;100.00;100843.97;5203576;28;20076;-74
2022/11/19 05:32:42;;;;;;;41.25;17.35;;;;;;;5.58;100.00;100846.50;5203060;28;20407;-74
2022/11/19 05:35:12;;;;;;;40.00;17.38;;;;;;;5.54;100.00;100853.06;5203587;28;20017;-74
2022/11/19 05:37:43;;;;;;;42.13;17.00;;;;;;;5.51;100.00;100862.13;5203164;28;20021;-73
2022/11/19 05:40:13;;;;;;;43.28;17.90;;;;;;;5.48;100.00;100861.56;5203590;28;20521;-74
2022/11/19 05:42:44;;;;;;;38.15;16.88;;;;;;;5.44;100.00;100863.66;5203236;28;20104;-73
2022/11/19 05:45:15;;;;;;;41.33;16.73;;;;;;;5.46;100.00;100870.50;5203326;28;20102;-73
2022/11/19 05:47:45;;;;;;;40.42;17.20;;;;;;;5.48;100.00;100866.91;5201633;28;20438;-74
2022/11/19 05:50:15;;;;;;;45.53;18.92;;;;;;;5.42;100.00;100870.91;5203455;28;20108;-73
2022/11/19 05:52:46;;;;;;;49.40;18.73;;;;;;;5.39;100.00;100877.34;5203175;28;20479;-74
2022/11/19 05:55:16;;;;;;;43.65;18.30;;;;;;;5.40;100.00;100879.03;5203353;28;20028;-73
2022/11/19 05:57:47;;;;;;;50.55;20.17;;;;;;;5.39;100.00;100882.66;5189074;28;20515;-73
2022/11/19 06:00:19;;;;;;;45.67;20.50;;;;;;;5.31;100.00;100886.94;5203324;28;20459;-73
2022/11/19 06:02:50;;;;;;;52.75;21.02;;;;;;;5.31;100.00;100887.78;5202948;28;20035;-74
2022/11/19 06:05:20;;;;;;;53.65;21.33;;;;;;;5.33;100.00;100890.34;5203366;28;20434;-73
2022/11/19 06:07:50;;;;;;;46.80;19.25;;;;;;;5.29;100.00;100892.41;5202675;28;20033;-73
2022/11/19 06:10:22;;;;;;;37.55;16.02;;;;;;;5.24;100.00;100905.25;5203405;28;20029;-73
2022/11/19 06:12:52;;;;;;;33.70;15.55;;;;;;;5.20;100.00;100909.16;5199119;28;20037;-74
2022/11/19 06:15:24;;;;;;;38.45;15.25;;;;;;;5.15;100.00;100917.50;5193096;28;20028;-73
2022/11/19 06:17:55;;;;;;;36.08;16.02;;;;;;;5.12;100.00;100916.91;5200896;28;20056;-73
2022/11/19 06:20:26;;;;;;;33.72;15.15;;;;;;;5.08;100.00;100918.16;5200585;28;20471;-73
2022/11/19 06:22:57;;;;;;;42.22;16.55;;;;;;;5.10;100.00;100926.84;5201694;28;20037;-73
2022/11/19 06:25:27;;;;;;;37.83;16.40;;;;;;;5.10;100.00;100930.34;5198230;28;20462;-74
2022/11/19 06:27:58;;;;;;;44.88;18.67;;;;;;;5.09;100.00;100926.00;5188459;28;20084;-73
2022/11/19 06:30:28;;;;;;;46.97;18.23;;;;;;;5.10;100.00;100933.00;5199659;28;20037;-74
2022/11/19 06:32:59;;;;;;;46.65;20.38;;;;;;;5.08;100.00;100931.47;5197423;28;20041;-73
2022/11/19 06:35:30;;;;;;;43.97;18.42;;;;;;;5.05;100.00;100937.88;5201426;28;20397;-73
2022/11/19 06:38:00;;;;;;;48.00;20.08;;;;;;;5.02;100.00;100939.94;5202619;28;20421;-73
2022/11/19 06:40:30;;;;;;;44.75;18.10;;;;;;;4.99;100.00;100937.56;5206286;28;20475;-73
2022/11/19 06:43:01;;;;;;;43.38;17.95;;;;;;;4.90;100.00;100934.69;5205981;28;20091;-74
2022/11/19 06:45:31;;;;;;;38.85;16.42;;;;;;;4.87;100.00;100931.41;5206493;28;20437;-73
2022/11/19 06:48:02;;;;;;;42.47;17.13;;;;;;;4.88;100.00;100941.09;5205652;28;20120;-73
2022/11/19 06:50:32;;;;;;;42.53;17.33;;;;;;;4.86;100.00;100938.56;5205554;28;20256;-73
2022/11/19 06:53:03;;;;;;;38.92;16.40;;;;;;;4.88;100.00;100938.44;5205090;28;20549;-73
2022/11/19 06:55:33;;;;;;;36.88;15.70;;;;;;;4.92;100.00;100939.88;5204981;28;20052;-73
2022/11/19 06:58:05;;;;;;;35.10;14.23;;;;;;;5.00;100.00;100955.19;5204332;28;20676;-74
2022/11/19 07:00:36;;;;;;;30.58;13.07;;;;;;;4.88;100.00;100951.75;5205266;28;20033;-74
2022/11/19 07:03:06;;;;;;;28.45;11.95;;;;;;;4.79;100.00;100958.66;5205082;28;20018;-74
2022/11/19 07:05:37;;;;;;;27.65;11.63;;;;;;;4.71;100.00;100958.44;5202678;28;20021;-73
2022/11/19 07:08:08;;;;;;;23.05;9.85;;;;;;;4.63;100.00;100958.22;5204386;28;20084;-74
2022/11/19 07:10:38;;;;;;;20.75;9.52;;;;;;;4.53;100.00;100960.78;5204399;28;20025;-73
2022/11/19 07:13:09;;;;;;;23.95;10.65;;;;;;;4.50;100.00;100969.00;5204658;28;20112;-73
2022/11/19 07:15:40;;;;;;;23.48;10.30;;;;;;;4.52;100.00;100967.06;5204174;28;20025;-73
2022/11/19 07:18:10;;;;;;;27.65;10.73;;;;;;;4.51;100.00;100969.84;5204178;28;20022;-73
2022/11/19 07:20:44;;;;;;;25.48;10.65;;;;;;;4.42;100.00;100971.44;5204547;28;20033;-73
2022/11/19 07:23:14;;;;;;;21.98;9.80;;;;;;;4.31;100.00;100977.59;5204298;28;20351;-73
2022/11/19 07:25:45;;;;;;;21.15;9.98;;;;;;;4.22;100.00;100978.34;5194373;28;20029;-74
2022/11/19 07:28:15;;;;;;;26.35;11.77;;;;;;;4.23;100.00;100982.69;5184938;28;20034;-73
2022/11/19 07:30:46;;;;;;;28.45;10.95;;;;;;;4.19;100.00;100988.34;5203898;28;20033;-72
2022/11/19 07:33:16;;;;;;;30.60;13.18;;;;;;;4.21;100.00;100991.72;5201888;28;20800;-73
2022/11/19 07:35:47;;;;;;;32.20;12.93;;;;;;;4.23;100.00;100998.63;5204070;28;20060;-73
2022/11/19 07:38:17;;;;;;;39.28;14.77;;;;;;;4.29;100.00;100999.94;5203811;28;20031;-73
2022/11/19 07:40:55;;;;;;;45.08;16.40;;;;;;;4.24;100.00;100997.66;5204523;28;20025;-73
2022/11/19 07:43:25;;;;;;;40.15;17.88;;;;;;;4.20;100.00;101009.47;5204636;28;20045;-73
2022/11/19 07:45:56;;;;;;;46.15;17.75;;;;;;;4.16;100.00;101005.38;5205190;28;20088;-73
2022/11/19 07:48:26;;;;;;;48.17;18.20;;;;;;;4.14;100.00;101010.81;5204664;28;20079;-73
2022/11/19 07:50:57;;;;;;;44.33;18.02;;;;;;;4.14;100.00;101013.47;5202919;28;20139;-73
2022/11/19 07:53:27;;;;;;;49.45;20.10;;;;;;;4.04;100.00;101014.31;5204091;28;20018;-73
2022/11/19 07:56:01;;;;;;;49.05;20.15;;;;;;;3.96;100.00;101020.19;5203743;28;20022;-73
2022/11/19 07:58:32;;;;;;;58.05;21.95;;;;;;;3.98;100.00;101036.88;5203525;28;20108;-73
2022/11/19 08:01:10;;;;;;;62.15;24.77;;;;;;;3.87;100.00;101029.75;5202254;28;20292;-73
2022/11/19 08:03:41;;;;;;;57.85;22.50;;;;;;;3.84;100.00;101034.44;5203518;28;20078;-74
2022/11/19 08:06:14;;;;;;;61.58;22.85;;;;;;;3.80;100.00;101039.13;5204014;28;20029;-74
2022/11/19 08:08:45;;;;;;;62.97;23.55;;;;;;;3.80;100.00;101044.44;5200855;28;20025;-73
2022/11/19 08:11:16;;;;;;;65.30;23.40;;;;;;;3.78;100.00;101043.72;5202508;28;20032;-74
2022/11/19 08:13:47;;;;;;;60.85;23.50;;;;;;;3.76;100.00;101042.97;5204579;28;20203;-73
2022/11/19 08:19:12;;;;;;;64.45;22.75;;;;;;;3.73;100.00;101055.66;5204160;28;20502;-73
2022/11/19 08:21:45;;;;;;;53.22;22.02;;;;;;;3.66;100.00;101052.59;5204878;28;20495;-74
2022/11/19 08:24:18;;;;;;;67.35;25.15;;;;;;;3.67;100.00;101058.78;5205115;28;20056;-74
2022/11/19 08:26:48;;;;;;;60.95;23.20;;;;;;;3.69;100.00;101063.00;5198975;28;20108;-74
2022/11/19 08:29:22;;;;;;;67.78;24.17;;;;;;;3.65;100.00;101066.84;5194003;28;20035;-74
2022/11/19 08:31:52;;;;;;;67.22;23.95;;;;;;;3.70;100.00;101071.78;5201416;28;20482;-74
2022/11/19 08:34:23;;;;;;;64.05;23.42;;;;;;;3.72;100.00;101075.19;5204858;28;20112;-74
2022/11/19 08:36:54;;;;;;;65.93;23.40;;;;;;;3.70;100.00;101075.28;5204478;28;20100;-74
2022/11/19 08:39:24;;;;;;;62.00;24.25;;;;;;;3.70;100.00;101071.78;5204219;28;20056;-74
2022/11/19 08:44:44;;;;;;;64.35;22.98;;;;;;;3.65;100.00;101077.44;5204224;28;20426;-74
2022/11/19 08:47:14;;;;;;;67.90;25.75;;;;;;;3.64;100.00;101081.06;5203655;28;20055;-76
2022/11/19 08:49:44;;;;;;;75.57;25.98;;;;;;;3.61;100.00;101081.28;5204300;28;20049;-75
2022/11/19 08:52:15;;;;;;;77.57;30.27;;;;;;;3.59;100.00;101081.41;5203969;28;20064;-73
2022/11/19 08:54:45;;;;;;;83.07;29.33;;;;;;;3.56;100.00;101080.78;5203455;28;20032;-73
2022/11/19 08:57:16;;;;;;;85.38;30.92;;;;;;;3.57;100.00;101083.34;5203299;28;20018;-73
2022/11/19 08:59:46;;;;;;;90.18;30.15;;;;;;;3.60;100.00;101084.91;5203659;28;20056;-73
2022/11/19 09:02:17;;;;;;;85.43;29.17;;;;;;;3.61;100.00;101086.59;5203362;28;20057;-74
2022/11/19 09:04:47;;;;;;;87.25;31.20;;;;;;;3.64;100.00;101081.91;5203847;28;20026;-74
2022/11/19 09:07:18;;;;;;;89.57;30.10;;;;;;;3.70;100.00;101085.91;5191296;28;20034;-74
2022/11/19 09:09:48;;;;;;;83.03;29.27;;;;;;;3.71;100.00;101092.91;5204813;28;20032;-73
2022/11/19 09:12:18;;;;;;;89.85;32.03;;;;;;;3.73;100.00;101096.28;5203844;28;20033;-73
2022/11/19 09:14:52;;;;;;;86.30;29.73;;;;;;;3.73;100.00;101091.00;5204051;28;20026;-74
2022/11/19 09:17:23;;;;;;;81.03;29.55;;;;;;;3.74;100.00;101092.69;5202990;28;20029;-73
2022/11/19 09:19:54;;;;;;;87.63;29.90;;;;;;;3.74;100.00;101097.97;5203322;28;20090;-73
2022/11/19 09:22:24;;;;;;;90.63;29.85;;;;;;;3.79;100.00;101105.59;5203346;28;20029;-74
2022/11/19 09:24:54;;;;;;;99.05;30.17;;;;;;;3.79;100.00;101110.91;5200868;28;20017;-73
2022/11/19 09:27:25;;;;;;;92.25;31.55;;;;;;;3.72;100.00;101102.56;5202972;28;20041;-73
2022/11/19 09:29:55;;;;;;;91.82;30.98;;;;;;;3.68;100.00;101102.91;5202813;28;20021;-73
2022/11/19 09:32:27;;;;;;;84.22;29.67;;;;;;;3.65;100.00;101093.38;5205955;28;20044;-73
2022/11/19 09:34:57;;;;;;;83.13;29.90;;;;;;;3.63;100.00;101103.25;5203208;28;20416;-73
2022/11/19 09:37:30;;;;;;;93.88;32.35;;;;;;;3.67;100.00;101109.19;5202927;28;20066;-73
2022/11/19 09:40:00;;;;;;;83.90;30.15;;;;;;;3.68;100.00;101113.53;5202936;28;20030;-73
2022/11/19 09:43:16;;;;;;;83.35;31.33;;;;;;;3.63;100.00;101116.53;5202980;28;20033;-73
2022/11/19 09:46:04;;;;;;;82.53;30.00;;;;;;;3.60;100.00;101119.41;5185931;28;20491;-72
2022/11/19 09:48:37;;;;;;;83.18;30.75;;;;;;;3.63;100.00;101125.31;5190252;28;20025;-73
2022/11/19 09:51:16;;;;;;;88.55;31.08;;;;;;;3.63;100.00;101133.28;5202724;28;20032;-73
2022/11/19 09:53:52;;;;;;;100.03;33.28;;;;;;;3.65;100.00;101138.47;5203242;28;20091;-73
2022/11/19 09:56:32;;;;;;;99.38;32.70;;;;;;;3.64;100.00;101136.78;5202881;28;20108;-73
2022/11/19 09:59:34;;;;;;;94.18;32.47;;;;;;;3.61;100.00;101143.19;5202351;28;20107;-73
2022/11/19 10:02:21;;;;;;;94.32;30.73;;;;;;;3.63;100.00;101143.06;5201069;28;20029;-73
2022/11/19 10:04:52;;;;;;;89.88;30.65;;;;;;;3.58;100.00;101146.06;5202607;28;20037;-73
2022/11/19 10:08:01;;;;;;;83.43;30.63;;;;;;;3.59;100.00;101145.09;5202058;28;20494;-73
2022/11/19 10:10:40;;;;;;;89.65;31.67;;;;;;;3.60;100.00;101152.06;5179563;28;20030;-73
2022/11/19 10:13:31;;;;;;;81.40;30.08;;;;;;;3.57;100.00;101148.81;5179329;28;20109;-73
2022/11/19 10:16:07;;;;;;;84.05;30.02;;;;;;;3.57;100.00;101146.16;5188039;28;20079;-73
2022/11/19 10:18:56;;;;;;;95.57;33.08;;;;;;;3.54;100.00;101149.03;5202017;28;20526;-73
2022/11/19 10:21:57;;;;;;;104.20;35.55;;;;;;;3.52;100.00;101156.28;5203039;28;20479;-73
2022/11/19 10:24:42;;;;;;;101.70;35.15;;;;;;;3.44;100.00;101155.97;5198348;28;20037;-74
2022/11/19 10:27:30;;;;;;;110.88;38.72;;;;;;;3.45;100.00;101152.38;5199926;28;20032;-73
2022/11/19 10:30:05;;;;;;;106.60;35.47;;;;;;;3.46;100.00;101156.72;5202755;28;20045;-74
2022/11/19 10:32:41;;;;;;;104.18;33.72;;;;;;;3.42;100.00;101150.81;5198949;28;20505;-73
2022/11/19 10:35:19;;;;;;;112.68;35.55;;;;;;;3.38;100.00;101155.47;5189153;28;20067;-73
2022/11/19 10:37:57;;;;;;;107.35;37.30;;;;;;;3.44;100.00;101151.53;5202197;28;20025;-73
2022/11/19 10:40:37;;;;;;;124.93;39.58;;;;;;;3.52;100.00;101156.28;5200334;28;20325;-73
2022/11/19 10:43:21;;;;;;;137.50;43.60;;;;;;;3.57;100.00;101162.09;5188413;28;20391;-73
2022/11/19 10:45:54;;;;;;;134.00;40.08;;;;;;;3.58;100.00;101166.44;5186188;28;20061;-73
2022/11/19 10:48:31;;;;;;;134.45;40.63;;;;;;;3.53;100.00;101160.63;5200176;28;20113;-73
2022/11/19 10:51:11;;;;;;;120.25;38.97;;;;;;;3.50;100.00;101153.72;5200646;28;20557;-73
2022/11/19 10:53:43;;;;;;;121.05;39.60;;;;;;;3.44;100.00;101153.34;5201234;28;20079;-73
2022/11/19 10:56:18;;;;;;;107.72;36.70;;;;;;;3.36;100.00;101148.56;5200329;28;20025;-73
2022/11/19 10:59:07;;;;;;;112.03;37.30;;;;;;;3.35;100.00;101153.03;5200572;28;20378;-73
2022/11/19 11:01:41;;;;;;;114.07;38.17;;;;;;;3.35;100.00;101149.53;5188535;28;20037;-73
2022/11/19 11:04:14;;;;;;;119.75;39.08;;;;;;;3.34;100.00;101150.50;5200557;28;20021;-73
2022/11/19 11:06:49;;;;;;;112.47;38.42;;;;;;;3.34;100.00;101140.75;5199633;28;20033;-73
2022/11/19 11:09:29;;;;;;;127.40;39.90;;;;;;;3.34;100.00;101140.75;5201097;28;20028;-73
2022/11/19 11:15:20;;;;;;;144.90;44.92;;;;;;;3.24;100.00;101146.84;5201465;28;20467;-73
2022/11/19 11:18:02;;;;;;;167.23;47.00;;;;;;;3.29;100.00;101139.38;5202434;28;20071;-73
2022/11/19 11:20:35;;;;;;;154.48;43.85;;;;;;;3.28;100.00;101145.66;5201182;28;20026;-73
2022/11/19 11:23:08;;;;;;;144.40;42.63;;;;;;;3.22;100.00;101154.91;5200994;28;20032;-73
2022/11/19 11:25:39;;;;;;;156.82;45.13;;;;;;;3.25;100.00;101153.81;5200317;28;20018;-73
2022/11/19 11:28:14;;;;;;;158.15;46.85;;;;;;;3.31;100.00;101148.94;5189700;28;20052;-73
2022/11/19 11:30:55;;;;;;;154.20;42.88;;;;;;;3.33;100.00;101149.66;5201670;28;20025;-73
2022/11/19 11:33:31;;;;;;;140.75;43.78;;;;;;;3.39;100.00;101145.72;5203285;28;20029;-73
2022/11/19 11:36:06;;;;;;;147.98;45.17;;;;;;;3.44;100.00;101143.56;5204062;28;20120;-73
2022/11/19 11:38:44;;;;;;;;;;;;;;;3.29;100.00;101140.22;5203536;28;20073;-73
2022/11/19 11:41:33;;;;;;;128.38;40.60;;;;;;;3.24;100.00;101152.97;5203270;28;20341;-73
2022/11/19 11:44:06;;;;;;;137.85;42.05;;;;;;;3.30;100.00;101146.38;5201473;28;20445;-73
2022/11/19 11:46:47;;;;;;;130.75;41.53;;;;;;;3.32;100.00;101140.03;5203381;28;20032;-72
2022/11/19 11:49:22;;;;;;;141.75;42.83;;;;;;;3.14;100.00;101146.66;5203458;28;20036;-72
2022/11/19 11:52:09;;;;;;;133.65;42.75;;;;;;;3.11;100.00;101152.16;5203396;28;20033;-72
2022/11/19 11:54:55;;;;;;;133.70;41.63;;;;;;;3.03;100.00;101157.19;5202202;28;20037;-72
2022/11/19 11:57:34;;;;;;;141.57;44.50;;;;;;;3.04;100.00;101161.53;5202971;28;20105;-72
2022/11/19 12:00:30;;;;;;;125.13;41.03;;;;;;;2.90;100.00;101169.63;5202514;28;20108;-72
2022/11/19 12:03:08;;;;;;;143.75;45.65;;;;;;;2.92;100.00;101176.50;5222836;28;20482;-72